createdAt,value
2017-07-20T00:00:24.413Z,6.40
2017-07-20T00:02:55.216Z,6.50
2017-07-20T00:05:25.399Z,8.05
2017-07-20T00:07:55.070Z,7.10
2017-07-20T00:10:24.855Z,5.95
2017-07-20T00:12:54.994Z,6.07
2017-07-20T00:15:24.899Z,7.80
2017-07-20T00:17:54.836Z,8.10
2017-07-20T00:20:24.682Z,6.37
2017-07-20T00:22:54.396Z,6.68
2017-07-20T00:25:24.256Z,6.20
2017-07-20T00:27:54.591Z,5.95
2017-07-20T00:30:24.468Z,6.50
2017-07-20T00:32:54.481Z,12.83
2017-07-20T00:35:25.265Z,10.47
2017-07-20T00:37:55.239Z,9.90
2017-07-20T00:40:25.354Z,9.80
2017-07-20T00:42:55.267Z,9.82
2017-07-20T00:45:25.193Z,9.55
2017-07-20T00:47:55.339Z,9.00
2017-07-20T00:50:25.223Z,9.25
2017-07-20T00:52:55.158Z,7.85
2017-07-20T00:55:25.534Z,7.12
2017-07-20T00:57:55.090Z,9.65
2017-07-20T01:00:26.660Z,8.32
2017-07-20T01:02:56.627Z,12.77
2017-07-20T01:05:26.519Z,9.25
2017-07-20T01:07:56.946Z,9.40
2017-07-20T01:10:26.964Z,9.27
2017-07-20T01:12:57.551Z,7.20
2017-07-20T01:15:27.426Z,6.70
2017-07-20T01:17:57.909Z,6.40
2017-07-20T01:20:28.140Z,8.57
2017-07-20T01:22:57.818Z,8.20
2017-07-20T01:25:27.962Z,6.95
2017-07-20T01:27:58.061Z,6.50
2017-07-20T01:30:28.501Z,9.00
2017-07-20T01:32:59.082Z,10.13
2017-07-20T01:35:29.183Z,11.50
2017-07-20T01:37:59.108Z,12.80
2017-07-20T01:40:30.108Z,10.82
2017-07-20T01:42:59.911Z,10.02
2017-07-20T01:45:29.831Z,9.23
2017-07-20T01:48:02.987Z,8.10
2017-07-20T01:50:37.530Z,6.72
2017-07-20T01:53:09.635Z,7.00
2017-07-20T01:55:41.542Z,7.95
2017-07-20T01:58:12.363Z,9.45
2017-07-20T02:00:42.505Z,9.10
2017-07-20T02:03:13.419Z,10.00
2017-07-20T02:05:44.182Z,7.07
2017-07-20T02:08:14.235Z,7.60
2017-07-20T02:10:44.130Z,8.63
2017-07-20T02:13:14.077Z,9.13
2017-07-20T02:15:44.203Z,7.47
2017-07-20T02:18:14.167Z,7.40
2017-07-20T02:20:43.860Z,8.63
2017-07-20T02:23:13.544Z,7.30
2017-07-20T02:25:43.629Z,8.02
2017-07-20T02:28:13.627Z,9.13
2017-07-20T02:30:43.484Z,7.50
2017-07-20T02:33:13.375Z,9.70
2017-07-20T02:35:43.357Z,9.02
2017-07-20T02:38:13.203Z,15.52
2017-07-20T02:40:43.731Z,12.90
2017-07-20T02:43:13.650Z,14.43
2017-07-20T02:45:44.103Z,10.25
2017-07-20T02:48:13.891Z,8.07
2017-07-20T02:50:43.686Z,9.00
2017-07-20T02:53:13.514Z,9.82
2017-07-20T02:55:43.238Z,9.38
2017-07-20T02:58:13.082Z,12.45
2017-07-20T03:00:43.896Z,12.75
2017-07-20T03:03:14.060Z,7.18
2017-07-20T03:05:44.178Z,9.40
2017-07-20T03:08:14.267Z,7.60
2017-07-20T03:10:44.658Z,8.88
2017-07-20T03:13:14.361Z,7.90
2017-07-20T03:15:43.970Z,7.60
2017-07-20T03:18:13.615Z,8.60
2017-07-20T03:20:43.204Z,10.88
2017-07-20T03:23:13.235Z,8.23
2017-07-20T03:25:42.854Z,11.93
2017-07-20T03:28:12.507Z,10.70
2017-07-20T03:30:42.107Z,18.67
2017-07-20T03:33:11.647Z,14.52
2017-07-20T03:35:41.225Z,15.48
2017-07-20T03:40:28.665Z,16.75
2017-07-20T03:42:58.532Z,12.32
2017-07-20T03:45:28.135Z,13.13
2017-07-20T03:47:59.601Z,14.98
2017-07-20T03:52:07.857Z,16.87
2017-07-20T03:54:37.635Z,14.15
2017-07-20T03:57:08.766Z,11.18
2017-07-20T03:59:40.194Z,11.95
2017-07-20T04:02:10.032Z,19.98
2017-07-20T04:04:40.259Z,16.45
2017-07-20T04:07:09.798Z,19.47
2017-07-20T04:09:40.394Z,15.75
2017-07-20T04:12:10.360Z,11.68
2017-07-20T04:14:40.286Z,10.35
2017-07-20T04:17:10.400Z,14.27
2017-07-20T04:19:40.339Z,12.65
2017-07-20T04:22:10.104Z,13.77
2017-07-20T04:24:39.703Z,13.65
2017-07-20T04:27:09.333Z,13.20
2017-07-20T04:29:39.765Z,14.32
2017-07-20T04:32:10.446Z,10.57
2017-07-20T04:34:41.248Z,14.45
2017-07-20T04:37:11.487Z,15.07
2017-07-20T04:39:46.129Z,12.60
2017-07-20T04:42:16.818Z,12.27
2017-07-20T04:44:46.866Z,11.30
2017-07-20T04:47:17.671Z,11.75
2017-07-20T04:49:47.939Z,11.40
2017-07-20T04:52:19.657Z,14.75
2017-07-20T04:54:50.743Z,12.70
2017-07-20T04:57:21.369Z,12.48
2017-07-20T04:59:51.382Z,12.63
2017-07-20T05:02:21.091Z,11.12
2017-07-20T05:04:51.442Z,12.02
2017-07-20T05:07:21.007Z,13.38
2017-07-20T05:09:50.540Z,17.20
2017-07-20T05:12:27.129Z,15.40
2017-07-20T05:14:56.862Z,13.20
2017-07-20T05:17:26.955Z,13.88
2017-07-20T05:19:59.615Z,9.90
2017-07-20T05:25:37.125Z,14.30
2017-07-20T05:28:18.966Z,9.90
2017-07-20T05:30:56.256Z,14.60
2017-07-20T05:33:31.733Z,9.93
2017-07-20T05:36:02.021Z,18.27
2017-07-20T05:38:35.467Z,13.90
2017-07-20T05:41:05.079Z,10.75
2017-07-20T05:43:38.315Z,13.57
2017-07-20T05:46:08.111Z,13.07
2017-07-20T05:48:37.702Z,13.37
2017-07-20T05:51:07.636Z,14.95
2017-07-20T05:53:37.206Z,9.07
2017-07-20T05:56:08.435Z,10.60
2017-07-20T05:58:38.515Z,11.02
2017-07-20T06:01:13.151Z,10.20
2017-07-20T06:03:42.811Z,8.88
2017-07-20T06:06:18.199Z,12.27
2017-07-20T06:08:49.443Z,16.08
2017-07-20T06:11:19.054Z,15.30
2017-07-20T06:13:48.920Z,10.82
2017-07-20T06:16:20.708Z,13.88
2017-07-20T06:18:50.341Z,13.35
2017-07-20T06:21:20.078Z,14.00
2017-07-20T06:23:50.176Z,8.00
2017-07-20T06:26:20.176Z,7.82
2017-07-20T06:28:56.215Z,8.20
2017-07-20T06:31:51.351Z,9.27
2017-07-20T06:34:21.153Z,9.57
2017-07-20T06:36:51.612Z,8.67
2017-07-20T06:39:25.410Z,7.72
2017-07-20T06:41:57.156Z,13.43
2017-07-20T06:44:29.094Z,12.57
2017-07-20T06:47:05.910Z,8.52
2017-07-20T06:49:37.212Z,9.50
2017-07-20T06:52:07.731Z,8.77
2017-07-20T06:54:41.111Z,9.23
2017-07-20T06:57:11.879Z,10.95
2017-07-20T06:59:41.830Z,10.23
2017-07-20T07:02:13.632Z,11.02
2017-07-20T07:04:50.037Z,9.82
2017-07-20T07:07:19.983Z,12.60
2017-07-20T07:09:50.264Z,9.55
2017-07-20T07:12:20.738Z,7.13
2017-07-20T07:14:50.291Z,7.62
2017-07-20T07:17:19.948Z,7.25
2017-07-20T07:20:14.962Z,8.32
2017-07-20T07:22:46.852Z,7.47
2017-07-20T07:25:20.277Z,8.18
2017-07-20T07:27:57.151Z,7.18
2017-07-20T07:30:27.846Z,8.93
2017-07-20T07:32:59.382Z,8.00
2017-07-20T07:35:29.179Z,5.62
2017-07-20T07:37:58.913Z,5.65
2017-07-20T07:40:28.866Z,5.30
2017-07-20T07:42:59.862Z,5.80
2017-07-20T07:45:29.657Z,6.10
2017-07-20T07:47:59.692Z,7.55
2017-07-20T07:50:31.204Z,7.50
2017-07-20T07:53:02.438Z,7.50
2017-07-20T07:55:36.233Z,9.73
2017-07-20T07:58:05.896Z,6.25
2017-07-20T08:00:38.200Z,6.90
2017-07-20T08:03:16.810Z,7.07
2017-07-20T08:05:51.024Z,6.95
2017-07-20T08:08:21.340Z,10.38
2017-07-20T08:10:52.071Z,5.10
2017-07-20T08:13:23.069Z,7.47
2017-07-20T08:15:54.562Z,5.75
2017-07-20T08:18:24.728Z,6.75
2017-07-20T08:20:55.397Z,7.70
2017-07-20T08:23:25.602Z,9.20
2017-07-20T08:25:55.453Z,4.70
2017-07-20T08:28:25.345Z,6.93
2017-07-20T08:30:55.475Z,6.50
2017-07-20T08:33:25.080Z,7.60
2017-07-20T08:35:57.295Z,6.70
2017-07-20T08:38:27.011Z,6.60
2017-07-20T08:40:57.482Z,6.28
2017-07-20T08:43:27.495Z,9.98
2017-07-20T08:45:57.290Z,6.22
2017-07-20T08:48:26.932Z,8.53
2017-07-20T08:50:56.928Z,9.40
2017-07-20T08:53:31.975Z,7.17
2017-07-20T08:56:06.015Z,6.18
2017-07-20T08:58:44.843Z,7.18
2017-07-20T09:01:15.364Z,5.97
2017-07-20T09:03:45.866Z,8.70
2017-07-20T09:06:15.776Z,5.10
2017-07-20T09:08:45.701Z,7.40
2017-07-20T09:11:15.659Z,6.22
2017-07-20T09:13:45.510Z,6.45
2017-07-20T09:16:16.427Z,8.68
2017-07-20T09:18:46.947Z,6.80
2017-07-20T09:21:16.995Z,5.70
2017-07-20T09:23:46.558Z,10.45
2017-07-20T09:26:16.949Z,10.20
2017-07-20T09:28:46.873Z,6.72
2017-07-20T09:31:35.663Z,7.37
2017-07-20T09:34:06.179Z,10.77
2017-07-20T09:36:35.686Z,9.95
2017-07-20T09:39:06.142Z,12.07
2017-07-20T09:41:47.718Z,7.65
2017-07-20T09:44:18.445Z,11.02
2017-07-20T09:46:48.472Z,11.10
2017-07-20T09:49:19.081Z,10.50
2017-07-20T09:51:52.495Z,7.62
2017-07-20T09:54:22.891Z,10.60
2017-07-20T09:56:53.930Z,9.30
2017-07-20T09:59:23.893Z,9.90
2017-07-20T10:01:59.304Z,13.23
2017-07-20T10:04:29.194Z,8.65
2017-07-20T10:07:23.381Z,10.70
2017-07-20T10:09:56.504Z,7.40
2017-07-20T10:12:29.839Z,9.43
2017-07-20T10:17:56.112Z,6.57
2017-07-20T10:20:29.215Z,8.93
2017-07-20T10:22:59.010Z,10.57
2017-07-20T10:28:07.147Z,9.23
2017-07-20T10:30:41.507Z,11.88
2017-07-20T10:33:11.846Z,9.45
2017-07-20T10:35:43.565Z,8.43
2017-07-20T10:38:16.197Z,7.20
2017-07-20T10:40:53.847Z,11.88
2017-07-20T10:43:27.491Z,10.10
2017-07-20T10:45:57.388Z,8.70
2017-07-20T10:48:36.595Z,7.90
2017-07-20T10:54:22.983Z,11.40
2017-07-20T10:57:08.790Z,10.73
2017-07-20T10:59:38.871Z,11.00
2017-07-20T11:02:15.842Z,10.68
2017-07-20T11:04:47.978Z,10.47
2017-07-20T11:07:18.652Z,9.13
2017-07-20T11:09:49.471Z,7.97
2017-07-20T11:15:10.468Z,11.88
2017-07-20T11:17:42.667Z,10.63
2017-07-20T11:26:13.517Z,9.23
2017-07-20T11:28:44.940Z,11.02
2017-07-20T11:31:18.579Z,12.88
2017-07-20T11:33:50.874Z,12.55
2017-07-20T11:36:21.416Z,10.85
2017-07-20T11:38:51.088Z,14.02
2017-07-20T11:41:20.894Z,12.30
2017-07-20T11:43:56.001Z,9.70
2017-07-20T11:46:26.432Z,13.95
2017-07-20T11:48:58.859Z,10.15
2017-07-20T11:51:39.055Z,9.68
2017-07-20T11:54:23.663Z,8.43
2017-07-20T11:56:54.694Z,9.80
2017-07-20T11:59:24.750Z,9.77
2017-07-20T12:01:56.915Z,11.80
2017-07-20T12:04:30.864Z,8.83
2017-07-20T12:07:00.900Z,10.32
2017-07-20T12:09:33.683Z,7.57
2017-07-20T12:12:04.376Z,11.60
2017-07-20T12:14:34.122Z,9.88
2017-07-20T12:17:04.767Z,9.88
2017-07-20T12:19:34.519Z,11.93
2017-07-20T12:22:38.167Z,8.73
2017-07-20T12:25:08.901Z,7.60
2017-07-20T12:27:50.960Z,7.80
2017-07-20T12:30:20.980Z,9.23
2017-07-20T12:33:10.420Z,11.87
2017-07-20T12:35:53.074Z,11.25
2017-07-20T12:38:27.214Z,11.05
2017-07-20T12:40:58.537Z,12.37
2017-07-20T12:43:28.138Z,10.63
2017-07-20T12:45:59.970Z,8.20
2017-07-20T12:48:30.391Z,6.62
2017-07-20T12:51:03.133Z,8.68
2017-07-20T12:53:51.714Z,11.40
2017-07-20T12:56:37.579Z,6.67
2017-07-20T12:59:10.923Z,8.77
2017-07-20T13:01:41.374Z,9.57
2017-07-20T13:04:11.026Z,8.68
2017-07-20T13:06:42.782Z,7.50
2017-07-20T13:12:46.259Z,13.32
2017-07-20T13:15:19.239Z,7.12
2017-07-20T13:17:56.640Z,9.40
2017-07-20T13:20:29.650Z,11.32
2017-07-20T13:23:04.242Z,5.90
2017-07-20T13:25:35.161Z,9.30
2017-07-20T13:28:06.791Z,8.40
2017-07-20T13:33:39.202Z,12.67
2017-07-20T13:36:19.762Z,9.38
2017-07-20T13:38:56.770Z,6.87
2017-07-20T13:41:30.271Z,10.45
2017-07-20T13:44:17.117Z,7.75
2017-07-20T13:46:48.008Z,6.57
2017-07-20T13:49:18.254Z,10.45
2017-07-20T13:51:56.476Z,12.75
2017-07-20T13:54:30.692Z,8.93
2017-07-20T13:57:03.703Z,9.63
2017-07-20T13:59:35.325Z,11.63
2017-07-20T14:02:05.474Z,7.78
2017-07-20T14:04:39.518Z,9.80
2017-07-20T14:07:22.247Z,10.82
2017-07-20T14:09:52.262Z,7.68
2017-07-20T14:12:22.985Z,9.05
2017-07-20T14:15:00.021Z,10.45
2017-07-20T14:17:30.331Z,9.48
2017-07-20T14:19:59.924Z,10.95
2017-07-20T14:22:42.664Z,9.18
2017-07-20T14:25:14.420Z,6.80
2017-07-20T14:27:44.597Z,13.97
2017-07-20T14:30:18.686Z,8.60
2017-07-20T14:32:50.732Z,7.75
2017-07-20T14:35:36.045Z,12.00
2017-07-20T14:38:10.327Z,10.40
2017-07-20T14:40:44.653Z,6.80
2017-07-20T14:43:16.502Z,7.85
2017-07-20T14:45:57.415Z,9.23
2017-07-20T14:48:37.793Z,6.73
2017-07-20T14:54:13.287Z,4.13
2017-07-20T14:56:47.312Z,6.12
2017-07-20T14:59:17.803Z,5.70
2017-07-20T15:01:47.506Z,4.23
2017-07-20T15:04:18.308Z,5.10
2017-07-20T15:06:50.514Z,5.30
2017-07-20T15:09:21.467Z,3.80
2017-07-20T15:11:51.023Z,6.57
2017-07-20T15:14:21.284Z,2.90
2017-07-20T15:16:51.332Z,3.25
2017-07-20T15:19:22.304Z,4.97
2017-07-20T15:21:52.817Z,2.25
2017-07-20T15:24:53.260Z,4.10
2017-07-20T15:27:26.035Z,2.22
2017-07-20T15:30:00.611Z,2.10
2017-07-20T15:32:34.081Z,5.15
2017-07-20T15:35:06.620Z,4.18
2017-07-20T15:37:42.098Z,2.80
2017-07-20T15:40:12.179Z,3.20
2017-07-20T15:42:44.985Z,5.37
2017-07-20T15:45:15.878Z,3.78
2017-07-20T15:47:45.851Z,2.20
2017-07-20T15:50:15.813Z,3.10
2017-07-20T15:52:45.581Z,2.35
2017-07-20T15:55:15.267Z,2.53
2017-07-20T15:57:45.056Z,3.35
2017-07-20T16:03:21.949Z,9.55
2017-07-20T16:05:53.440Z,2.90
2017-07-20T16:08:23.873Z,4.57
2017-07-20T16:11:22.418Z,3.87
2017-07-20T16:17:13.828Z,5.35
2017-07-20T16:19:43.602Z,3.62
2017-07-20T16:22:13.295Z,3.92
2017-07-20T16:24:52.404Z,4.30
2017-07-20T16:27:21.978Z,3.22
2017-07-20T16:29:51.884Z,2.67
2017-07-20T16:32:21.914Z,4.37
2017-07-20T16:34:52.486Z,3.80
2017-07-20T16:37:22.823Z,5.32
2017-07-20T16:43:00.544Z,5.80
2017-07-20T16:45:30.771Z,4.10
2017-07-20T16:48:01.465Z,3.20
2017-07-20T16:50:35.517Z,3.00
2017-07-20T16:53:07.060Z,2.70
2017-07-20T16:55:38.075Z,3.50
2017-07-20T16:58:08.078Z,4.00
2017-07-20T17:00:38.543Z,3.65
2017-07-20T17:03:08.228Z,4.23
2017-07-20T17:05:43.455Z,4.55
2017-07-20T17:08:19.194Z,5.70
2017-07-20T17:10:48.851Z,4.65
2017-07-20T17:13:18.445Z,3.45
2017-07-20T17:15:48.761Z,5.60
2017-07-20T17:18:18.583Z,5.53
2017-07-20T17:21:27.368Z,4.97
2017-07-20T17:23:58.063Z,4.40
2017-07-20T17:26:28.181Z,3.85
2017-07-20T17:29:13.091Z,2.65
2017-07-20T17:34:41.815Z,3.10
2017-07-20T17:40:17.623Z,3.20
2017-07-20T17:43:00.135Z,2.23
2017-07-20T17:45:30.551Z,4.12
2017-07-20T17:48:26.095Z,4.78
2017-07-20T17:50:58.750Z,5.70
2017-07-20T17:53:29.690Z,5.68
2017-07-20T17:56:00.327Z,9.23
2017-07-20T17:58:50.113Z,8.32
2017-07-20T18:01:19.907Z,6.35
2017-07-20T18:04:07.184Z,6.22
2017-07-20T18:06:42.409Z,5.90
2017-07-20T18:09:18.960Z,6.35
2017-07-20T18:11:49.966Z,7.97
2017-07-20T18:14:19.736Z,7.70
2017-07-20T18:19:29.158Z,3.33
2017-07-20T18:21:59.300Z,5.00
2017-07-20T18:24:38.027Z,4.15
2017-07-20T18:27:11.094Z,4.30
2017-07-20T18:29:41.642Z,2.92
2017-07-20T18:32:13.069Z,3.80
2017-07-20T18:34:46.647Z,6.40
2017-07-20T18:37:16.608Z,3.27
2017-07-20T18:39:47.739Z,2.93
2017-07-20T18:42:26.601Z,2.42
2017-07-20T18:44:58.170Z,2.78
2017-07-20T18:47:28.758Z,3.35
2017-07-20T18:50:08.598Z,2.30
2017-07-20T18:52:40.413Z,2.90
2017-07-20T18:55:12.682Z,3.00
2017-07-20T18:57:43.118Z,2.40
2017-07-20T19:00:25.932Z,2.53
2017-07-20T19:02:56.782Z,3.90
2017-07-20T19:05:27.169Z,3.10
2017-07-20T19:07:58.967Z,2.78
2017-07-20T19:10:30.485Z,5.65
2017-07-20T19:13:01.486Z,3.97
2017-07-20T19:15:31.194Z,5.10
2017-07-20T19:18:01.440Z,3.10
2017-07-20T19:20:31.688Z,3.33
2017-07-20T19:23:06.717Z,4.85
2017-07-20T19:25:38.172Z,3.53
2017-07-20T19:28:11.231Z,3.05
2017-07-20T19:30:40.868Z,3.67
2017-07-20T19:33:11.435Z,3.00
2017-07-20T19:35:49.363Z,2.80
2017-07-20T19:38:19.213Z,3.40
2017-07-20T19:40:49.361Z,2.93
2017-07-20T19:43:20.672Z,3.00
2017-07-20T19:45:51.041Z,3.97
2017-07-20T19:48:21.220Z,3.33
2017-07-20T19:50:51.129Z,2.92
2017-07-20T19:53:21.802Z,4.10
2017-07-20T19:55:51.511Z,3.20
2017-07-20T19:58:21.094Z,2.70
2017-07-20T20:00:50.687Z,4.05
2017-07-20T20:03:20.268Z,3.40
2017-07-20T20:05:50.495Z,5.60
2017-07-20T20:08:21.264Z,4.10
2017-07-20T20:10:50.880Z,2.97
2017-07-20T20:13:20.439Z,2.35
2017-07-20T20:15:50.052Z,3.47
2017-07-20T20:18:20.247Z,3.12
2017-07-20T20:20:51.826Z,3.33
2017-07-20T20:23:21.930Z,3.00
2017-07-20T20:25:51.497Z,3.30
2017-07-20T20:28:21.756Z,2.70
2017-07-20T20:30:52.693Z,3.40
2017-07-20T20:33:22.431Z,2.70
2017-07-20T20:35:52.203Z,3.50
2017-07-20T20:38:22.197Z,2.78
2017-07-20T20:40:51.774Z,3.12
2017-07-20T20:43:28.726Z,4.30
2017-07-20T20:45:59.688Z,3.08
2017-07-20T20:48:35.118Z,2.22
2017-07-20T20:51:05.531Z,4.20
2017-07-20T20:53:35.294Z,2.90
2017-07-20T20:56:05.513Z,3.10
2017-07-20T20:58:36.803Z,3.30
2017-07-20T21:01:07.389Z,2.63
2017-07-20T21:03:40.004Z,3.30
2017-07-20T21:06:39.460Z,2.95
2017-07-20T21:09:10.532Z,3.60
2017-07-20T21:11:41.723Z,3.00
2017-07-20T21:14:13.603Z,5.80
2017-07-20T21:16:46.366Z,2.87
2017-07-20T21:19:18.248Z,4.12
2017-07-20T21:21:50.618Z,2.05
2017-07-20T21:24:20.842Z,3.50
2017-07-20T21:26:52.778Z,2.47
2017-07-20T21:29:25.564Z,3.92
2017-07-20T21:31:56.807Z,4.07
2017-07-20T21:34:27.802Z,3.85
2017-07-20T21:37:00.561Z,2.20
2017-07-20T21:39:37.704Z,3.37
2017-07-20T21:42:09.492Z,4.60
2017-07-20T21:44:41.393Z,2.87
2017-07-20T21:47:12.623Z,3.50
2017-07-20T21:49:44.241Z,6.25
2017-07-20T21:52:14.639Z,3.65
2017-07-20T21:54:46.087Z,2.30
2017-07-20T21:57:16.723Z,4.30
2017-07-20T21:59:46.503Z,2.70
2017-07-20T22:02:16.051Z,2.75
2017-07-20T22:04:45.712Z,2.10
2017-07-20T22:07:22.514Z,2.10
2017-07-20T22:09:52.455Z,2.53
2017-07-20T22:12:22.116Z,4.50
2017-07-20T22:14:52.157Z,2.22
2017-07-20T22:17:21.750Z,2.70
2017-07-20T22:19:51.339Z,3.10
2017-07-20T22:22:22.445Z,5.72
2017-07-20T22:24:52.502Z,3.35
2017-07-20T22:27:22.031Z,3.72
2017-07-20T22:29:51.554Z,3.30
2017-07-20T22:32:21.109Z,2.33
2017-07-20T22:34:50.904Z,3.80
2017-07-20T22:37:20.452Z,2.47
2017-07-20T22:39:50.343Z,2.60
2017-07-20T22:42:20.406Z,3.83
2017-07-20T22:44:50.297Z,3.03
2017-07-20T22:47:20.284Z,3.22
2017-07-20T22:49:50.611Z,3.30
2017-07-20T22:52:20.767Z,2.28
2017-07-20T22:54:51.049Z,2.80
2017-07-20T22:57:21.348Z,3.67
2017-07-20T22:59:51.151Z,3.20
2017-07-20T23:02:20.964Z,2.53
2017-07-20T23:04:51.353Z,3.80
2017-07-20T23:07:22.783Z,2.83
2017-07-20T23:09:52.358Z,4.00
2017-07-20T23:12:21.934Z,4.40
2017-07-20T23:14:51.722Z,4.32
2017-07-20T23:17:21.248Z,3.22
2017-07-20T23:19:50.811Z,2.80
2017-07-20T23:22:20.330Z,3.72
2017-07-20T23:24:51.020Z,2.50
2017-07-20T23:27:20.909Z,2.97
2017-07-20T23:29:51.400Z,2.90
2017-07-20T23:32:21.592Z,2.10
2017-07-20T23:34:51.666Z,2.45
2017-07-20T23:37:21.614Z,3.10
2017-07-20T23:39:52.200Z,5.87
2017-07-20T23:42:22.244Z,3.30
2017-07-20T23:44:53.058Z,3.05
2017-07-20T23:47:22.970Z,2.50
2017-07-20T23:49:53.058Z,2.80
2017-07-20T23:52:22.943Z,4.28
2017-07-20T23:54:53.287Z,3.20
2017-07-20T23:57:22.999Z,6.97
2017-07-20T23:59:52.918Z,5.63
